Terminal Aerodrome Forecast
Issued by NWS

Home | Current Version | Previous Version | Graphics & Text | Print | Product List | Glossary On
Versions: 1 2 3 4 5 6 7 8 9 10 11 12 13 14 15
000
FTUS43 KABR 301129
TAFPIR
TAF
KPIR 301129Z 3012/0112 11011KT P6SM SCT100
     FM301400 12012G17KT P6SM BKN250
     FM010200 10008KT P6SM OVC100=

USA.gov is the U.S. government's official web portal to all federal, state and local government web resources and services.